sensor_id;sensor_type;location;lat;lon;timestamp;P1;durP1;ratioP1;P2;durP2;ratioP2
44366;SDS011;30086;57.660;12.000;2023-10-19T00:00:08;1.02;;;0.73;;
44366;SDS011;30086;57.660;12.000;2023-10-19T00:02:49;0.80;;;0.63;;
44366;SDS011;30086;57.660;12.000;2023-10-19T00:05:37;1.30;;;0.80;;
44366;SDS011;30086;57.660;12.000;2023-10-19T00:08:05;1.25;;;0.88;;
44366;SDS011;30086;57.660;12.000;2023-10-19T00:10:38;1.05;;;0.90;;
44366;SDS011;30086;57.660;12.000;2023-10-19T00:13:05;2.45;;;0.70;;
44366;SDS011;30086;57.660;12.000;2023-10-19T00:15:34;1.10;;;0.80;;
44366;SDS011;30086;57.660;12.000;2023-10-19T00:18:05;1.00;;;0.77;;
44366;SDS011;30086;57.660;12.000;2023-10-19T00:20:52;1.00;;;0.88;;
44366;SDS011;30086;57.660;12.000;2023-10-19T00:23:46;0.93;;;0.75;;
44366;SDS011;30086;57.660;12.000;2023-10-19T00:26:53;0.95;;;0.60;;
44366;SDS011;30086;57.660;12.000;2023-10-19T00:29:23;1.38;;;0.75;;
44366;SDS011;30086;57.660;12.000;2023-10-19T00:32:15;4.63;;;1.25;;
44366;SDS011;30086;57.660;12.000;2023-10-19T00:34:46;5.07;;;1.27;;
44366;SDS011;30086;57.660;12.000;2023-10-19T00:37:16;1.13;;;0.93;;
44366;SDS011;30086;57.660;12.000;2023-10-19T00:39:46;1.90;;;1.20;;
44366;SDS011;30086;57.660;12.000;2023-10-19T00:42:20;2.58;;;0.82;;
44366;SDS011;30086;57.660;12.000;2023-10-19T00:44:54;1.42;;;1.17;;
44366;SDS011;30086;57.660;12.000;2023-10-19T00:47:28;4.20;;;1.23;;
44366;SDS011;30086;57.660;12.000;2023-10-19T00:50:06;2.38;;;1.15;;
44366;SDS011;30086;57.660;12.000;2023-10-19T00:52:37;3.67;;;1.55;;
44366;SDS011;30086;57.660;12.000;2023-10-19T00:55:15;2.67;;;1.20;;
44366;SDS011;30086;57.660;12.000;2023-10-19T00:57:43;2.47;;;1.40;;
44366;SDS011;30086;57.660;12.000;2023-10-19T01:03:06;2.13;;;1.40;;
44366;SDS011;30086;57.660;12.000;2023-10-19T01:05:35;4.05;;;1.60;;
44366;SDS011;30086;57.660;12.000;2023-10-19T01:08:03;6.03;;;1.48;;
44366;SDS011;30086;57.660;12.000;2023-10-19T01:10:49;2.85;;;1.23;;
44366;SDS011;30086;57.660;12.000;2023-10-19T01:13:18;1.95;;;1.35;;
44366;SDS011;30086;57.660;12.000;2023-10-19T01:15:53;2.08;;;1.15;;
44366;SDS011;30086;57.660;12.000;2023-10-19T01:18:20;3.60;;;1.50;;
44366;SDS011;30086;57.660;12.000;2023-10-19T01:20:47;3.03;;;1.52;;
44366;SDS011;30086;57.660;12.000;2023-10-19T01:23:18;3.08;;;1.90;;
44366;SDS011;30086;57.660;12.000;2023-10-19T01:25:56;2.65;;;1.48;;
44366;SDS011;30086;57.660;12.000;2023-10-19T01:28:43;4.30;;;1.67;;
44366;SDS011;30086;57.660;12.000;2023-10-19T01:31:14;7.80;;;1.55;;
44366;SDS011;30086;57.660;12.000;2023-10-19T01:34:01;2.47;;;1.40;;
44366;SDS011;30086;57.660;12.000;2023-10-19T01:36:30;2.90;;;1.27;;
44366;SDS011;30086;57.660;12.000;2023-10-19T01:39:03;6.07;;;1.92;;
44366;SDS011;30086;57.660;12.000;2023-10-19T01:41:53;3.33;;;1.50;;
44366;SDS011;30086;57.660;12.000;2023-10-19T01:44:19;2.88;;;1.50;;
44366;SDS011;30086;57.660;12.000;2023-10-19T01:46:47;2.60;;;1.50;;
44366;SDS011;30086;57.660;12.000;2023-10-19T01:49:14;3.05;;;1.60;;
44366;SDS011;30086;57.660;12.000;2023-10-19T01:51:43;4.30;;;1.73;;
44366;SDS011;30086;57.660;12.000;2023-10-19T01:54:12;5.70;;;1.58;;
44366;SDS011;30086;57.660;12.000;2023-10-19T01:56:43;5.20;;;1.40;;
44366;SDS011;30086;57.660;12.000;2023-10-19T01:59:11;2.55;;;1.52;;
44366;SDS011;30086;57.660;12.000;2023-10-19T02:01:38;3.45;;;1.40;;
44366;SDS011;30086;57.660;12.000;2023-10-19T02:04:11;4.93;;;1.70;;
44366;SDS011;30086;57.660;12.000;2023-10-19T02:06:38;2.35;;;1.50;;
44366;SDS011;30086;57.660;12.000;2023-10-19T02:09:11;5.28;;;1.80;;
44366;SDS011;30086;57.660;12.000;2023-10-19T02:11:47;4.97;;;1.45;;
44366;SDS011;30086;57.660;12.000;2023-10-19T02:14:14;1.92;;;1.55;;
44366;SDS011;30086;57.660;12.000;2023-10-19T02:16:45;3.80;;;1.67;;
44366;SDS011;30086;57.660;12.000;2023-10-19T02:19:12;3.50;;;1.80;;
44366;SDS011;30086;57.660;12.000;2023-10-19T02:21:38;4.22;;;1.55;;
44366;SDS011;30086;57.660;12.000;2023-10-19T02:24:06;4.50;;;1.60;;
44366;SDS011;30086;57.660;12.000;2023-10-19T02:26:33;3.17;;;1.58;;
44366;SDS011;30086;57.660;12.000;2023-10-19T02:28:59;3.08;;;1.33;;
44366;SDS011;30086;57.660;12.000;2023-10-19T02:31:25;2.92;;;1.52;;
44366;SDS011;30086;57.660;12.000;2023-10-19T02:34:09;3.97;;;1.80;;
44366;SDS011;30086;57.660;12.000;2023-10-19T02:36:38;2.53;;;1.30;;
44366;SDS011;30086;57.660;12.000;2023-10-19T02:39:07;3.20;;;1.60;;
44366;SDS011;30086;57.660;12.000;2023-10-19T02:41:33;4.20;;;1.90;;
44366;SDS011;30086;57.660;12.000;2023-10-19T02:44:22;3.15;;;1.52;;
44366;SDS011;30086;57.660;12.000;2023-10-19T02:46:51;2.38;;;1.40;;
44366;SDS011;30086;57.660;12.000;2023-10-19T02:49:20;2.97;;;1.60;;
44366;SDS011;30086;57.660;12.000;2023-10-19T02:51:52;4.95;;;1.88;;
44366;SDS011;30086;57.660;12.000;2023-10-19T02:54:19;8.45;;;1.88;;
44366;SDS011;30086;57.660;12.000;2023-10-19T02:56:50;4.35;;;1.50;;
44366;SDS011;30086;57.660;12.000;2023-10-19T02:59:41;4.75;;;1.50;;
44366;SDS011;30086;57.660;12.000;2023-10-19T03:02:07;6.38;;;1.77;;
44366;SDS011;30086;57.660;12.000;2023-10-19T03:04:42;3.90;;;1.63;;
44366;SDS011;30086;57.660;12.000;2023-10-19T03:07:09;4.22;;;1.75;;
44366;SDS011;30086;57.660;12.000;2023-10-19T03:09:42;1.30;;;1.10;;
44366;SDS011;30086;57.660;12.000;2023-10-19T03:12:14;2.58;;;1.33;;
44366;SDS011;30086;57.660;12.000;2023-10-19T03:14:40;5.45;;;1.33;;
44366;SDS011;30086;57.660;12.000;2023-10-19T03:17:07;4.50;;;1.52;;
44366;SDS011;30086;57.660;12.000;2023-10-19T03:19:40;2.17;;;1.50;;
44366;SDS011;30086;57.660;12.000;2023-10-19T03:22:07;5.30;;;1.70;;
44366;SDS011;30086;57.660;12.000;2023-10-19T03:24:34;4.05;;;1.70;;
44366;SDS011;30086;57.660;12.000;2023-10-19T03:30:16;5.93;;;1.48;;
44366;SDS011;30086;57.660;12.000;2023-10-19T03:32:46;3.20;;;1.30;;
44366;SDS011;30086;57.660;12.000;2023-10-19T03:35:12;4.28;;;1.35;;
44366;SDS011;30086;57.660;12.000;2023-10-19T03:37:41;5.35;;;1.70;;
44366;SDS011;30086;57.660;12.000;2023-10-19T03:40:07;4.35;;;1.55;;
44366;SDS011;30086;57.660;12.000;2023-10-19T03:42:39;3.42;;;1.50;;
44366;SDS011;30086;57.660;12.000;2023-10-19T03:45:08;2.97;;;1.58;;
44366;SDS011;30086;57.660;12.000;2023-10-19T03:47:40;2.03;;;1.55;;
44366;SDS011;30086;57.660;12.000;2023-10-19T03:52:47;5.25;;;1.50;;
44366;SDS011;30086;57.660;12.000;2023-10-19T03:55:13;4.10;;;1.42;;
44366;SDS011;30086;57.660;12.000;2023-10-19T03:57:48;5.65;;;1.80;;
44366;SDS011;30086;57.660;12.000;2023-10-19T04:00:21;3.28;;;1.73;;
44366;SDS011;30086;57.660;12.000;2023-10-19T04:03:11;4.10;;;1.60;;
44366;SDS011;30086;57.660;12.000;2023-10-19T04:05:37;2.67;;;1.60;;
44366;SDS011;30086;57.660;12.000;2023-10-19T04:08:06;3.88;;;1.67;;
44366;SDS011;30086;57.660;12.000;2023-10-19T04:11:00;3.38;;;1.27;;
44366;SDS011;30086;57.660;12.000;2023-10-19T04:13:56;6.43;;;2.08;;
44366;SDS011;30086;57.660;12.000;2023-10-19T04:16:24;2.72;;;1.58;;
44366;SDS011;30086;57.660;12.000;2023-10-19T04:18:53;2.47;;;1.58;;
44366;SDS011;30086;57.660;12.000;2023-10-19T04:21:20;6.55;;;1.67;;
44366;SDS011;30086;57.660;12.000;2023-10-19T04:23:46;3.20;;;1.50;;
44366;SDS011;30086;57.660;12.000;2023-10-19T04:26:13;3.20;;;1.40;;
44366;SDS011;30086;57.660;12.000;2023-10-19T04:29:06;4.20;;;1.75;;
44366;SDS011;30086;57.660;12.000;2023-10-19T04:31:40;3.22;;;1.52;;
44366;SDS011;30086;57.660;12.000;2023-10-19T04:34:31;3.97;;;1.83;;
44366;SDS011;30086;57.660;12.000;2023-10-19T04:37:00;4.68;;;1.42;;
44366;SDS011;30086;57.660;12.000;2023-10-19T04:39:28;2.17;;;1.33;;
44366;SDS011;30086;57.660;12.000;2023-10-19T04:41:58;3.60;;;1.48;;
44366;SDS011;30086;57.660;12.000;2023-10-19T04:44:29;4.75;;;1.95;;
44366;SDS011;30086;57.660;12.000;2023-10-19T04:47:00;3.92;;;1.60;;
44366;SDS011;30086;57.660;12.000;2023-10-19T04:49:27;4.35;;;1.92;;
44366;SDS011;30086;57.660;12.000;2023-10-19T04:51:54;3.65;;;1.50;;
44366;SDS011;30086;57.660;12.000;2023-10-19T04:54:21;3.42;;;1.45;;
44366;SDS011;30086;57.660;12.000;2023-10-19T04:57:23;3.85;;;1.40;;
44366;SDS011;30086;57.660;12.000;2023-10-19T05:00:10;3.30;;;1.77;;
44366;SDS011;30086;57.660;12.000;2023-10-19T05:02:39;5.47;;;1.23;;
44366;SDS011;30086;57.660;12.000;2023-10-19T05:05:25;4.18;;;1.50;;
44366;SDS011;30086;57.660;12.000;2023-10-19T05:07:51;4.60;;;2.17;;
44366;SDS011;30086;57.660;12.000;2023-10-19T05:10:19;4.80;;;1.58;;
44366;SDS011;30086;57.660;12.000;2023-10-19T05:12:45;3.13;;;1.70;;
44366;SDS011;30086;57.660;12.000;2023-10-19T05:15:11;2.15;;;1.30;;
44366;SDS011;30086;57.660;12.000;2023-10-19T05:17:46;2.83;;;1.50;;
44366;SDS011;30086;57.660;12.000;2023-10-19T05:20:12;4.78;;;1.60;;
44366;SDS011;30086;57.660;12.000;2023-10-19T05:22:51;8.40;;;1.67;;
44366;SDS011;30086;57.660;12.000;2023-10-19T05:25:18;3.00;;;1.83;;
44366;SDS011;30086;57.660;12.000;2023-10-19T05:28:10;3.85;;;1.55;;
44366;SDS011;30086;57.660;12.000;2023-10-19T05:30:40;3.03;;;1.45;;
44366;SDS011;30086;57.660;12.000;2023-10-19T05:33:06;6.63;;;2.05;;
44366;SDS011;30086;57.660;12.000;2023-10-19T05:35:36;2.15;;;1.30;;
44366;SDS011;30086;57.660;12.000;2023-10-19T05:38:06;3.42;;;1.70;;
44366;SDS011;30086;57.660;12.000;2023-10-19T05:40:33;3.47;;;1.67;;
44366;SDS011;30086;57.660;12.000;2023-10-19T05:43:01;5.97;;;1.50;;
44366;SDS011;30086;57.660;12.000;2023-10-19T05:45:27;4.70;;;1.80;;
44366;SDS011;30086;57.660;12.000;2023-10-19T05:47:57;2.75;;;1.45;;
44366;SDS011;30086;57.660;12.000;2023-10-19T05:50:24;3.28;;;1.70;;
44366;SDS011;30086;57.660;12.000;2023-10-19T05:52:52;5.63;;;1.92;;
44366;SDS011;30086;57.660;12.000;2023-10-19T05:55:18;6.28;;;2.05;;
44366;SDS011;30086;57.660;12.000;2023-10-19T05:57:48;2.08;;;1.15;;
44366;SDS011;30086;57.660;12.000;2023-10-19T06:00:14;3.25;;;1.50;;
44366;SDS011;30086;57.660;12.000;2023-10-19T06:02:51;3.08;;;1.30;;
44366;SDS011;30086;57.660;12.000;2023-10-19T06:05:18;4.82;;;1.90;;
44366;SDS011;30086;57.660;12.000;2023-10-19T06:07:45;4.20;;;1.88;;
44366;SDS011;30086;57.660;12.000;2023-10-19T06:10:12;6.70;;;2.03;;
44366;SDS011;30086;57.660;12.000;2023-10-19T06:12:42;2.97;;;1.50;;
44366;SDS011;30086;57.660;12.000;2023-10-19T06:15:11;2.53;;;1.48;;
44366;SDS011;30086;57.660;12.000;2023-10-19T06:18:18;2.53;;;1.60;;
44366;SDS011;30086;57.660;12.000;2023-10-19T06:20:45;5.97;;;1.77;;
44366;SDS011;30086;57.660;12.000;2023-10-19T06:23:17;2.28;;;1.65;;
44366;SDS011;30086;57.660;12.000;2023-10-19T06:25:43;4.53;;;1.65;;
44366;SDS011;30086;57.660;12.000;2023-10-19T06:28:10;2.97;;;1.50;;
44366;SDS011;30086;57.660;12.000;2023-10-19T06:30:37;4.70;;;1.90;;
44366;SDS011;30086;57.660;12.000;2023-10-19T06:33:05;7.18;;;2.50;;
44366;SDS011;30086;57.660;12.000;2023-10-19T06:35:32;4.50;;;1.83;;
44366;SDS011;30086;57.660;12.000;2023-10-19T06:37:59;6.57;;;1.95;;
44366;SDS011;30086;57.660;12.000;2023-10-19T06:40:26;3.95;;;1.85;;
44366;SDS011;30086;57.660;12.000;2023-10-19T06:42:55;3.38;;;1.83;;
44366;SDS011;30086;57.660;12.000;2023-10-19T06:45:22;3.33;;;1.70;;
44366;SDS011;30086;57.660;12.000;2023-10-19T06:47:49;3.28;;;1.95;;
44366;SDS011;30086;57.660;12.000;2023-10-19T06:50:20;4.82;;;2.08;;
44366;SDS011;30086;57.660;12.000;2023-10-19T06:52:48;4.88;;;2.25;;
44366;SDS011;30086;57.660;12.000;2023-10-19T06:55:16;4.28;;;2.03;;
44366;SDS011;30086;57.660;12.000;2023-10-19T06:57:47;2.85;;;1.70;;
44366;SDS011;30086;57.660;12.000;2023-10-19T07:00:17;3.85;;;2.00;;
44366;SDS011;30086;57.660;12.000;2023-10-19T07:02:59;4.85;;;1.70;;
44366;SDS011;30086;57.660;12.000;2023-10-19T07:05:28;4.03;;;1.95;;
44366;SDS011;30086;57.660;12.000;2023-10-19T07:07:55;2.95;;;1.83;;
44366;SDS011;30086;57.660;12.000;2023-10-19T07:10:38;5.18;;;2.17;;
44366;SDS011;30086;57.660;12.000;2023-10-19T07:13:04;3.88;;;1.58;;
44366;SDS011;30086;57.660;12.000;2023-10-19T07:15:30;3.78;;;1.77;;
44366;SDS011;30086;57.660;12.000;2023-10-19T07:17:57;6.10;;;1.92;;
44366;SDS011;30086;57.660;12.000;2023-10-19T07:20:24;3.13;;;1.80;;
44366;SDS011;30086;57.660;12.000;2023-10-19T07:23:05;6.90;;;1.42;;
44366;SDS011;30086;57.660;12.000;2023-10-19T07:25:44;2.80;;;1.92;;
44366;SDS011;30086;57.660;12.000;2023-10-19T07:28:13;4.47;;;1.90;;
44366;SDS011;30086;57.660;12.000;2023-10-19T07:30:39;2.33;;;1.50;;
44366;SDS011;30086;57.660;12.000;2023-10-19T07:33:14;5.18;;;1.42;;
44366;SDS011;30086;57.660;12.000;2023-10-19T07:35:45;6.60;;;1.50;;
44366;SDS011;30086;57.660;12.000;2023-10-19T07:38:16;3.22;;;1.98;;
44366;SDS011;30086;57.660;12.000;2023-10-19T07:40:42;2.90;;;1.73;;
44366;SDS011;30086;57.660;12.000;2023-10-19T07:43:10;4.70;;;1.85;;
44366;SDS011;30086;57.660;12.000;2023-10-19T07:45:36;4.03;;;2.00;;
44366;SDS011;30086;57.660;12.000;2023-10-19T07:48:03;3.40;;;1.75;;
44366;SDS011;30086;57.660;12.000;2023-10-19T07:50:35;2.33;;;1.67;;
44366;SDS011;30086;57.660;12.000;2023-10-19T07:53:02;3.45;;;1.85;;
44366;SDS011;30086;57.660;12.000;2023-10-19T07:55:28;3.28;;;1.77;;
44366;SDS011;30086;57.660;12.000;2023-10-19T07:57:56;7.80;;;1.80;;
44366;SDS011;30086;57.660;12.000;2023-10-19T08:00:25;5.07;;;2.20;;
44366;SDS011;30086;57.660;12.000;2023-10-19T08:02:54;3.75;;;1.60;;
44366;SDS011;30086;57.660;12.000;2023-10-19T08:05:20;4.53;;;1.73;;
44366;SDS011;30086;57.660;12.000;2023-10-19T08:07:47;5.43;;;1.55;;
44366;SDS011;30086;57.660;12.000;2023-10-19T08:10:14;2.55;;;1.65;;
44366;SDS011;30086;57.660;12.000;2023-10-19T08:12:41;4.93;;;1.70;;
44366;SDS011;30086;57.660;12.000;2023-10-19T08:15:08;5.35;;;1.85;;
44366;SDS011;30086;57.660;12.000;2023-10-19T08:17:36;5.82;;;1.58;;
44366;SDS011;30086;57.660;12.000;2023-10-19T08:20:04;3.83;;;1.38;;
44366;SDS011;30086;57.660;12.000;2023-10-19T08:22:38;2.55;;;1.58;;
44366;SDS011;30086;57.660;12.000;2023-10-19T08:25:07;2.47;;;1.55;;
44366;SDS011;30086;57.660;12.000;2023-10-19T08:27:41;4.47;;;1.65;;
44366;SDS011;30086;57.660;12.000;2023-10-19T08:30:25;2.28;;;1.55;;
44366;SDS011;30086;57.660;12.000;2023-10-19T08:32:51;2.35;;;1.23;;
44366;SDS011;30086;57.660;12.000;2023-10-19T08:35:20;7.05;;;1.77;;
44366;SDS011;30086;57.660;12.000;2023-10-19T08:37:50;3.80;;;1.70;;
44366;SDS011;30086;57.660;12.000;2023-10-19T08:40:16;4.82;;;1.30;;
44366;SDS011;30086;57.660;12.000;2023-10-19T08:42:46;2.97;;;1.67;;
44366;SDS011;30086;57.660;12.000;2023-10-19T08:45:13;2.95;;;1.45;;
44366;SDS011;30086;57.660;12.000;2023-10-19T08:47:53;4.07;;;1.73;;
44366;SDS011;30086;57.660;12.000;2023-10-19T08:50:26;2.92;;;1.20;;
44366;SDS011;30086;57.660;12.000;2023-10-19T08:52:54;3.13;;;1.65;;
44366;SDS011;30086;57.660;12.000;2023-10-19T08:55:20;1.75;;;1.10;;
44366;SDS011;30086;57.660;12.000;2023-10-19T08:57:48;2.80;;;1.35;;
44366;SDS011;30086;57.660;12.000;2023-10-19T09:00:15;4.07;;;1.90;;
44366;SDS011;30086;57.660;12.000;2023-10-19T09:02:47;2.97;;;1.50;;
44366;SDS011;30086;57.660;12.000;2023-10-19T09:05:13;5.45;;;1.42;;
44366;SDS011;30086;57.660;12.000;2023-10-19T09:07:50;2.55;;;1.30;;
44366;SDS011;30086;57.660;12.000;2023-10-19T09:10:20;1.70;;;1.10;;
44366;SDS011;30086;57.660;12.000;2023-10-19T09:13:06;2.83;;;1.40;;
44366;SDS011;30086;57.660;12.000;2023-10-19T09:15:41;3.17;;;1.42;;
44366;SDS011;30086;57.660;12.000;2023-10-19T09:18:14;2.88;;;1.00;;
44366;SDS011;30086;57.660;12.000;2023-10-19T09:20:42;2.08;;;1.20;;
44366;SDS011;30086;57.660;12.000;2023-10-19T09:23:21;2.30;;;1.20;;
44366;SDS011;30086;57.660;12.000;2023-10-19T09:25:51;2.42;;;1.23;;
44366;SDS011;30086;57.660;12.000;2023-10-19T09:28:21;1.90;;;1.40;;
44366;SDS011;30086;57.660;12.000;2023-10-19T09:30:49;2.55;;;1.33;;
44366;SDS011;30086;57.660;12.000;2023-10-19T09:33:24;3.00;;;1.30;;
44366;SDS011;30086;57.660;12.000;2023-10-19T09:35:54;2.17;;;0.90;;
44366;SDS011;30086;57.660;12.000;2023-10-19T09:38:26;1.48;;;1.10;;
44366;SDS011;30086;57.660;12.000;2023-10-19T09:40:53;1.73;;;1.20;;
44366;SDS011;30086;57.660;12.000;2023-10-19T09:43:30;1.58;;;1.05;;
44366;SDS011;30086;57.660;12.000;2023-10-19T09:46:01;2.85;;;0.77;;
44366;SDS011;30086;57.660;12.000;2023-10-19T09:48:41;3.20;;;1.30;;
44366;SDS011;30086;57.660;12.000;2023-10-19T09:51:08;2.17;;;1.30;;
44366;SDS011;30086;57.660;12.000;2023-10-19T09:53:34;4.35;;;1.15;;
44366;SDS011;30086;57.660;12.000;2023-10-19T09:56:05;1.25;;;0.90;;
44366;SDS011;30086;57.660;12.000;2023-10-19T09:58:36;1.08;;;0.90;;
44366;SDS011;30086;57.660;12.000;2023-10-19T10:01:05;1.58;;;0.90;;
44366;SDS011;30086;57.660;12.000;2023-10-19T10:06:57;1.95;;;1.00;;
44366;SDS011;30086;57.660;12.000;2023-10-19T10:09:19;1.73;;;0.90;;
44366;SDS011;30086;57.660;12.000;2023-10-19T10:11:53;4.97;;;1.00;;
44366;SDS011;30086;57.660;12.000;2023-10-19T10:14:21;1.30;;;0.80;;
44366;SDS011;30086;57.660;12.000;2023-10-19T10:16:58;1.10;;;0.80;;
44366;SDS011;30086;57.660;12.000;2023-10-19T10:19:26;1.00;;;0.80;;
44366;SDS011;30086;57.660;12.000;2023-10-19T10:22:26;1.65;;;0.90;;
44366;SDS011;30086;57.660;12.000;2023-10-19T10:24:46;1.80;;;0.82;;
44366;SDS011;30086;57.660;12.000;2023-10-19T10:27:17;1.35;;;0.93;;
44366;SDS011;30086;57.660;12.000;2023-10-19T10:29:58;1.52;;;1.00;;
44366;SDS011;30086;57.660;12.000;2023-10-19T10:37:58;4.00;;;0.77;;
44366;SDS011;30086;57.660;12.000;2023-10-19T10:40:24;0.98;;;0.80;;
44366;SDS011;30086;57.660;12.000;2023-10-19T10:43:04;1.42;;;0.90;;
44366;SDS011;30086;57.660;12.000;2023-10-19T10:45:32;1.35;;;0.93;;
44366;SDS011;30086;57.660;12.000;2023-10-19T10:47:58;0.95;;;0.77;;
44366;SDS011;30086;57.660;12.000;2023-10-19T10:50:27;0.80;;;0.70;;
44366;SDS011;30086;57.660;12.000;2023-10-19T10:52:54;1.00;;;0.65;;
44366;SDS011;30086;57.660;12.000;2023-10-19T10:55:24;1.55;;;0.70;;
44366;SDS011;30086;57.660;12.000;2023-10-19T10:57:51;4.45;;;0.98;;
44366;SDS011;30086;57.660;12.000;2023-10-19T11:00:17;1.13;;;0.80;;
44366;SDS011;30086;57.660;12.000;2023-10-19T11:03:04;1.13;;;0.68;;
44366;SDS011;30086;57.660;12.000;2023-10-19T11:05:33;1.10;;;0.70;;
44366;SDS011;30086;57.660;12.000;2023-10-19T11:08:17;1.23;;;0.70;;
44366;SDS011;30086;57.660;12.000;2023-10-19T11:10:46;1.38;;;0.60;;
44366;SDS011;30086;57.660;12.000;2023-10-19T11:13:33;0.70;;;0.70;;
44366;SDS011;30086;57.660;12.000;2023-10-19T11:16:02;2.50;;;0.80;;
44366;SDS011;30086;57.660;12.000;2023-10-19T11:21:08;0.85;;;0.70;;
44366;SDS011;30086;57.660;12.000;2023-10-19T11:23:41;1.23;;;1.00;;
44366;SDS011;30086;57.660;12.000;2023-10-19T11:26:11;0.65;;;0.50;;
44366;SDS011;30086;57.660;12.000;2023-10-19T11:28:39;1.38;;;0.65;;
44366;SDS011;30086;57.660;12.000;2023-10-19T11:31:15;1.85;;;0.60;;
44366;SDS011;30086;57.660;12.000;2023-10-19T11:33:44;1.20;;;0.70;;
44366;SDS011;30086;57.660;12.000;2023-10-19T11:36:17;1.65;;;1.10;;
44366;SDS011;30086;57.660;12.000;2023-10-19T11:38:47;1.17;;;0.80;;
44366;SDS011;30086;57.660;12.000;2023-10-19T11:41:14;1.95;;;0.70;;
44366;SDS011;30086;57.660;12.000;2023-10-19T11:43:43;1.17;;;0.60;;
44366;SDS011;30086;57.660;12.000;2023-10-19T11:46:10;1.75;;;0.60;;
44366;SDS011;30086;57.660;12.000;2023-10-19T11:48:50;0.75;;;0.50;;
44366;SDS011;30086;57.660;12.000;2023-10-19T11:51:16;1.02;;;0.70;;
44366;SDS011;30086;57.660;12.000;2023-10-19T11:53:42;0.60;;;0.50;;
44366;SDS011;30086;57.660;12.000;2023-10-19T11:56:10;1.45;;;0.70;;
44366;SDS011;30086;57.660;12.000;2023-10-19T11:58:38;3.08;;;0.60;;
44366;SDS011;30086;57.660;12.000;2023-10-19T12:01:09;0.80;;;0.60;;
44366;SDS011;30086;57.660;12.000;2023-10-19T12:03:42;1.67;;;0.55;;
44366;SDS011;30086;57.660;12.000;2023-10-19T12:06:10;2.50;;;0.68;;
44366;SDS011;30086;57.660;12.000;2023-10-19T12:08:39;1.08;;;0.50;;
44366;SDS011;30086;57.660;12.000;2023-10-19T12:11:05;1.80;;;0.60;;
44366;SDS011;30086;57.660;12.000;2023-10-19T12:13:45;1.33;;;0.80;;
44366;SDS011;30086;57.660;12.000;2023-10-19T12:16:19;0.75;;;0.52;;
44366;SDS011;30086;57.660;12.000;2023-10-19T12:18:49;1.27;;;0.65;;
44366;SDS011;30086;57.660;12.000;2023-10-19T12:21:16;0.80;;;0.47;;
44366;SDS011;30086;57.660;12.000;2023-10-19T12:23:43;0.43;;;0.40;;
44366;SDS011;30086;57.660;12.000;2023-10-19T12:26:10;1.67;;;0.57;;
44366;SDS011;30086;57.660;12.000;2023-10-19T12:28:40;1.83;;;0.60;;
44366;SDS011;30086;57.660;12.000;2023-10-19T12:31:08;1.05;;;0.65;;
44366;SDS011;30086;57.660;12.000;2023-10-19T12:33:34;1.55;;;0.70;;
44366;SDS011;30086;57.660;12.000;2023-10-19T12:36:10;2.60;;;0.90;;
44366;SDS011;30086;57.660;12.000;2023-10-19T12:38:49;1.98;;;0.75;;
44366;SDS011;30086;57.660;12.000;2023-10-19T12:41:20;1.08;;;0.68;;
44366;SDS011;30086;57.660;12.000;2023-10-19T12:43:46;1.88;;;0.75;;
44366;SDS011;30086;57.660;12.000;2023-10-19T12:46:15;1.60;;;0.85;;
44366;SDS011;30086;57.660;12.000;2023-10-19T12:48:42;0.75;;;0.52;;
44366;SDS011;30086;57.660;12.000;2023-10-19T12:51:13;2.55;;;0.68;;
44366;SDS011;30086;57.660;12.000;2023-10-19T12:53:39;3.17;;;0.95;;
44366;SDS011;30086;57.660;12.000;2023-10-19T12:56:05;3.03;;;0.90;;
44366;SDS011;30086;57.660;12.000;2023-10-19T12:58:32;2.45;;;0.70;;
44366;SDS011;30086;57.660;12.000;2023-10-19T13:01:00;0.88;;;0.60;;
44366;SDS011;30086;57.660;12.000;2023-10-19T13:03:26;2.15;;;0.80;;
44366;SDS011;30086;57.660;12.000;2023-10-19T13:05:57;1.50;;;0.70;;
44366;SDS011;30086;57.660;12.000;2023-10-19T13:08:23;2.90;;;0.80;;
44366;SDS011;30086;57.660;12.000;2023-10-19T13:10:53;1.35;;;0.80;;
44366;SDS011;30086;57.660;12.000;2023-10-19T13:13:20;1.65;;;0.80;;
44366;SDS011;30086;57.660;12.000;2023-10-19T13:15:50;1.00;;;0.70;;
44366;SDS011;30086;57.660;12.000;2023-10-19T13:18:18;1.95;;;0.80;;
44366;SDS011;30086;57.660;12.000;2023-10-19T13:20:52;2.35;;;0.73;;
44366;SDS011;30086;57.660;12.000;2023-10-19T13:23:19;3.92;;;0.85;;
44366;SDS011;30086;57.660;12.000;2023-10-19T13:25:49;0.63;;;0.60;;
44366;SDS011;30086;57.660;12.000;2023-10-19T13:28:17;3.80;;;0.82;;
44366;SDS011;30086;57.660;12.000;2023-10-19T13:30:50;0.70;;;0.70;;
44366;SDS011;30086;57.660;12.000;2023-10-19T13:33:20;2.55;;;0.90;;
44366;SDS011;30086;57.660;12.000;2023-10-19T13:35:47;1.13;;;0.63;;
44366;SDS011;30086;57.660;12.000;2023-10-19T13:38:15;2.17;;;0.75;;
44366;SDS011;30086;57.660;12.000;2023-10-19T13:40:42;5.07;;;1.45;;
44366;SDS011;30086;57.660;12.000;2023-10-19T13:43:09;1.25;;;0.90;;
44366;SDS011;30086;57.660;12.000;2023-10-19T13:45:39;2.65;;;0.63;;
44366;SDS011;30086;57.660;12.000;2023-10-19T13:48:06;2.20;;;0.57;;
44366;SDS011;30086;57.660;12.000;2023-10-19T13:50:40;1.90;;;0.65;;
44366;SDS011;30086;57.660;12.000;2023-10-19T13:53:18;2.60;;;0.80;;
44366;SDS011;30086;57.660;12.000;2023-10-19T13:55:44;1.33;;;0.60;;
44366;SDS011;30086;57.660;12.000;2023-10-19T13:58:11;1.55;;;0.73;;
44366;SDS011;30086;57.660;12.000;2023-10-19T14:00:40;3.22;;;0.90;;
44366;SDS011;30086;57.660;12.000;2023-10-19T14:03:09;1.85;;;0.80;;
44366;SDS011;30086;57.660;12.000;2023-10-19T14:05:38;0.65;;;0.50;;
44366;SDS011;30086;57.660;12.000;2023-10-19T14:08:05;1.25;;;0.80;;
44366;SDS011;30086;57.660;12.000;2023-10-19T14:10:31;1.27;;;0.90;;
44366;SDS011;30086;57.660;12.000;2023-10-19T14:12:58;2.30;;;0.85;;
44366;SDS011;30086;57.660;12.000;2023-10-19T14:15:24;0.60;;;0.60;;
44366;SDS011;30086;57.660;12.000;2023-10-19T14:17:55;1.58;;;0.75;;
44366;SDS011;30086;57.660;12.000;2023-10-19T14:20:24;2.67;;;0.70;;
44366;SDS011;30086;57.660;12.000;2023-10-19T14:22:50;1.65;;;0.75;;
44366;SDS011;30086;57.660;12.000;2023-10-19T14:25:23;1.08;;;0.70;;
44366;SDS011;30086;57.660;12.000;2023-10-19T14:27:54;1.77;;;0.70;;
44366;SDS011;30086;57.660;12.000;2023-10-19T14:30:25;1.17;;;0.80;;
44366;SDS011;30086;57.660;12.000;2023-10-19T14:32:52;1.27;;;0.60;;
44366;SDS011;30086;57.660;12.000;2023-10-19T14:35:19;1.58;;;0.70;;
44366;SDS011;30086;57.660;12.000;2023-10-19T14:37:46;3.53;;;0.82;;
44366;SDS011;30086;57.660;12.000;2023-10-19T14:40:14;1.25;;;0.80;;
44366;SDS011;30086;57.660;12.000;2023-10-19T14:42:41;3.35;;;0.85;;
44366;SDS011;30086;57.660;12.000;2023-10-19T14:45:11;2.05;;;0.80;;
44366;SDS011;30086;57.660;12.000;2023-10-19T14:47:39;1.25;;;0.80;;
44366;SDS011;30086;57.660;12.000;2023-10-19T14:50:07;1.67;;;0.80;;
44366;SDS011;30086;57.660;12.000;2023-10-19T14:52:37;1.55;;;0.68;;
44366;SDS011;30086;57.660;12.000;2023-10-19T14:55:06;2.50;;;0.82;;
44366;SDS011;30086;57.660;12.000;2023-10-19T14:57:33;1.92;;;0.80;;
44366;SDS011;30086;57.660;12.000;2023-10-19T14:59:59;2.08;;;0.98;;
44366;SDS011;30086;57.660;12.000;2023-10-19T15:02:39;1.33;;;0.60;;
44366;SDS011;30086;57.660;12.000;2023-10-19T15:05:06;2.50;;;0.65;;
44366;SDS011;30086;57.660;12.000;2023-10-19T15:07:33;2.08;;;0.77;;
44366;SDS011;30086;57.660;12.000;2023-10-19T15:10:03;1.15;;;0.60;;
44366;SDS011;30086;57.660;12.000;2023-10-19T15:12:30;1.35;;;0.60;;
44366;SDS011;30086;57.660;12.000;2023-10-19T15:14:56;3.15;;;0.70;;